Elkhead, Missouri
Current Conditions -  °F | °C
As of 2:15 PM on Friday 21 Nov 2014 (Local Time) from KFWB Reporting Station
Overcast Overcast  
Wind Chill: 38°   Ceiling: 1300
Heat Index: 45°   Visibility: 10mi
Dew Point: 37°   Wind: 14mph
Humidity: 76%   Direction: 120°ESE
Pressure: 30.18"   Gusts: 21mph
Location:  36.9498°N, 93.1251°W
Report Text: KFWB 212015Z AUTO 12012G18KT 10SM OVC013 07/03 A3018 RMK AO2
Loading
Personal Weather Stations






























Interactive Weather Map New forecast layout! Learn more

10-Day Weather Forecast

Advertisements
Track Severe Weather on mobile